Terminal Aerodrome Forecast
Issued by NWS Omaha/Valley, NE

Home | Current Version | Previous Version | Text Only | Print | Product List | Glossary On
Versions: 1 2 3 4 5 6 7 8 9 10 11 12 13 14 15 16 17 18 19 20 21 22 23 24 25 26 27 28 29 30
000
FTUS43 KOAX 131134
TAFOMA
TAF
KOMA 131134Z 1312/1412 31018G24KT P6SM SCT100 BKN200 WS020/33055KT
     FM131400 32025G38KT P6SM SCT100 BKN200
     FM132200 32020G30KT P6SM OVC050
     FM140200 33014G20KT P6SM BKN035
     FM140400 33009KT P6SM OVC050=

USA.gov is the U.S. government's official web portal to all federal, state and local government web resources and services.